createdAt,value
2023-02-19T00:01:13.431Z,0.30
2023-02-19T00:03:41.819Z,0.00
2023-02-19T00:06:11.030Z,0.00
2023-02-19T00:08:38.831Z,0.00
2023-02-19T00:11:08.592Z,0.10
2023-02-19T00:13:40.243Z,0.10
2023-02-19T00:16:08.498Z,0.00
2023-02-19T00:18:36.136Z,0.00
2023-02-19T00:21:03.171Z,0.00
2023-02-19T00:23:30.095Z,0.00
2023-02-19T00:26:00.953Z,0.00
2023-02-19T00:28:29.702Z,0.00
2023-02-19T00:30:56.206Z,0.00
2023-02-19T00:33:22.741Z,0.22
2023-02-19T00:35:49.478Z,0.00
2023-02-19T00:38:15.963Z,0.10
2023-02-19T00:40:42.352Z,0.10
2023-02-19T00:43:08.750Z,0.00
2023-02-19T00:45:35.645Z,0.03
2023-02-19T00:48:02.076Z,0.00
2023-02-19T00:50:28.525Z,0.00
2023-02-19T00:52:54.933Z,0.00
2023-02-19T00:55:21.314Z,0.20
2023-02-19T00:57:47.685Z,0.10
2023-02-19T01:00:14.372Z,0.00
2023-02-19T01:02:40.945Z,0.00
2023-02-19T01:05:08.305Z,0.00
2023-02-19T01:07:38.689Z,0.00
2023-02-19T01:10:05.762Z,0.00
2023-02-19T01:14:59.032Z,0.00
2023-02-19T01:17:25.567Z,0.00
2023-02-19T01:19:52.122Z,0.08
2023-02-19T01:22:18.542Z,0.00
2023-02-19T01:24:44.937Z,0.00
2023-02-19T01:27:11.342Z,0.00
2023-02-19T01:29:37.864Z,0.00
2023-02-19T01:32:04.370Z,0.00
2023-02-19T01:34:33.243Z,0.00
2023-02-19T01:37:00.075Z,0.00
2023-02-19T01:41:52.848Z,0.00
2023-02-19T01:44:22.166Z,0.00
2023-02-19T01:46:48.684Z,0.00
2023-02-19T01:49:21.242Z,0.00
2023-02-19T01:51:54.273Z,0.10
2023-02-19T01:54:25.065Z,0.00
2023-02-19T01:56:52.282Z,0.00
2023-02-19T01:59:18.936Z,0.00
2023-02-19T02:01:46.107Z,0.00
2023-02-19T02:04:13.933Z,0.00
2023-02-19T02:06:49.593Z,0.00
2023-02-19T02:09:37.693Z,0.00
2023-02-19T02:12:04.418Z,0.10
2023-02-19T02:14:34.922Z,0.10
2023-02-19T02:17:20.179Z,0.00
2023-02-19T02:20:10.394Z,0.00
2023-02-19T02:23:11.963Z,0.05
2023-02-19T02:25:59.448Z,0.00
2023-02-19T02:28:36.319Z,0.00
2023-02-19T02:31:25.033Z,0.00
2023-02-19T02:34:04.599Z,0.00
2023-02-19T02:36:38.648Z,0.10
2023-02-19T02:39:09.107Z,0.03
2023-02-19T02:41:42.230Z,0.10
2023-02-19T02:44:08.589Z,0.20
2023-02-19T02:46:38.743Z,0.10
2023-02-19T02:49:08.962Z,0.10
2023-02-19T02:51:43.958Z,0.20
2023-02-19T02:54:37.415Z,0.65
2023-02-19T02:57:04.625Z,0.40
2023-02-19T02:59:35.752Z,0.20
2023-02-19T03:02:12.320Z,0.10
2023-02-19T03:05:14.994Z,0.17
2023-02-19T03:07:55.897Z,0.13
2023-02-19T03:10:36.108Z,0.13
2023-02-19T03:13:24.694Z,0.10
2023-02-19T03:16:15.087Z,0.20
2023-02-19T03:19:05.030Z,0.15
2023-02-19T03:21:34.864Z,0.30
2023-02-19T03:24:21.769Z,0.10
2023-02-19T03:26:53.841Z,0.10
2023-02-19T03:29:26.417Z,0.10
2023-02-19T03:32:00.724Z,0.20
2023-02-19T03:34:34.760Z,0.52
2023-02-19T03:37:08.813Z,0.10
2023-02-19T03:39:44.157Z,0.22
2023-02-19T03:42:58.953Z,0.32
2023-02-19T03:45:50.289Z,0.30
2023-02-19T03:48:25.112Z,0.73
2023-02-19T03:51:16.271Z,0.60
2023-02-19T03:54:07.529Z,0.70
2023-02-19T03:56:42.742Z,1.00
2023-02-19T03:59:09.096Z,1.40
2023-02-19T04:01:47.127Z,1.17
2023-02-19T04:04:21.785Z,1.70
2023-02-19T04:06:53.870Z,1.75
2023-02-19T04:09:22.805Z,1.90
2023-02-19T04:11:51.694Z,1.45
2023-02-19T04:14:31.054Z,1.73
2023-02-19T04:17:06.286Z,1.88
2023-02-19T04:19:36.705Z,1.70
2023-02-19T04:22:05.738Z,2.28
2023-02-19T04:24:44.358Z,1.88
2023-02-19T04:27:11.119Z,1.80
2023-02-19T04:29:39.184Z,2.25
2023-02-19T04:32:06.478Z,2.45
2023-02-19T04:34:33.154Z,1.98
2023-02-19T04:36:59.481Z,2.20
2023-02-19T04:39:25.869Z,2.17
2023-02-19T04:41:52.194Z,2.28
2023-02-19T04:44:18.598Z,2.38
2023-02-19T04:46:45.353Z,2.38
2023-02-19T04:49:11.796Z,2.30
2023-02-19T04:51:39.038Z,2.42
2023-02-19T04:54:05.558Z,2.17
2023-02-19T04:56:32.020Z,2.08
2023-02-19T04:58:58.425Z,2.08
2023-02-19T05:01:25.437Z,2.28
2023-02-19T05:03:52.410Z,2.20
2023-02-19T05:06:18.935Z,2.75
2023-02-19T05:08:45.406Z,2.47
2023-02-19T05:11:12.932Z,2.10
2023-02-19T05:13:39.851Z,2.40
2023-02-19T05:16:13.774Z,2.30
2023-02-19T05:18:41.524Z,2.25
2023-02-19T05:21:09.266Z,2.17
2023-02-19T05:23:36.091Z,2.40
2023-02-19T05:26:12.245Z,2.40
2023-02-19T05:28:39.098Z,2.47
2023-02-19T05:31:09.060Z,2.38
2023-02-19T05:33:37.209Z,2.33
2023-02-19T05:36:12.293Z,3.15
2023-02-19T05:38:40.111Z,3.30
2023-02-19T05:41:14.448Z,2.20
2023-02-19T05:43:42.353Z,2.78
2023-02-19T05:46:10.386Z,3.25
2023-02-19T05:48:37.330Z,2.50
2023-02-19T05:51:05.882Z,2.63
2023-02-19T05:53:33.028Z,3.17
2023-02-19T05:55:59.897Z,3.22
2023-02-19T05:58:27.492Z,2.42
2023-02-19T06:00:53.989Z,3.20
2023-02-19T06:03:21.093Z,2.45
2023-02-19T06:05:47.732Z,2.85
2023-02-19T06:08:15.832Z,2.90
2023-02-19T06:10:42.473Z,3.33
2023-02-19T06:13:09.875Z,2.95
2023-02-19T06:15:37.168Z,3.15
2023-02-19T06:18:04.238Z,3.10
2023-02-19T06:20:30.615Z,3.25
2023-02-19T06:22:57.017Z,3.05
2023-02-19T06:25:23.449Z,3.10
2023-02-19T06:27:49.874Z,3.90
2023-02-19T06:30:16.363Z,3.65
2023-02-19T06:32:42.782Z,3.47
2023-02-19T06:35:09.191Z,3.75
2023-02-19T06:37:35.783Z,4.18
2023-02-19T06:40:02.192Z,4.10
2023-02-19T06:42:32.535Z,4.85
2023-02-19T06:44:59.005Z,3.80
2023-02-19T06:47:25.588Z,3.88
2023-02-19T06:49:52.033Z,4.20
2023-02-19T06:52:18.441Z,4.10
2023-02-19T06:54:44.883Z,3.92
2023-02-19T06:57:11.295Z,4.75
2023-02-19T06:59:37.691Z,4.40
2023-02-19T07:02:04.082Z,3.47
2023-02-19T07:04:30.464Z,4.38
2023-02-19T07:06:57.011Z,3.80
2023-02-19T07:09:25.306Z,4.82
2023-02-19T07:11:52.298Z,4.45
2023-02-19T07:14:18.961Z,4.22
2023-02-19T07:16:47.465Z,4.10
2023-02-19T07:19:15.106Z,3.78
2023-02-19T07:21:42.307Z,4.53
2023-02-19T07:24:10.178Z,3.78
2023-02-19T07:26:36.716Z,4.15
2023-02-19T07:29:04.062Z,4.35
2023-02-19T07:31:30.689Z,4.05
2023-02-19T07:33:57.347Z,4.00
2023-02-19T07:36:24.546Z,4.28
2023-02-19T07:38:57.872Z,3.30
2023-02-19T07:41:26.124Z,4.10
2023-02-19T07:43:53.792Z,3.17
2023-02-19T07:46:21.468Z,3.72
2023-02-19T07:48:47.852Z,3.80
2023-02-19T07:51:18.927Z,4.00
2023-02-19T07:53:46.818Z,8.57
2023-02-19T07:56:13.901Z,4.28
2023-02-19T07:58:40.948Z,3.72
2023-02-19T08:01:18.910Z,4.20
2023-02-19T08:03:45.962Z,4.20
2023-02-19T08:06:12.720Z,4.45
2023-02-19T08:08:39.993Z,3.85
2023-02-19T08:13:53.423Z,4.78
2023-02-19T08:16:33.108Z,5.03
2023-02-19T08:19:03.794Z,4.35
2023-02-19T08:21:30.257Z,4.55
2023-02-19T08:23:56.633Z,4.30
2023-02-19T08:26:24.259Z,4.30
2023-02-19T08:28:50.598Z,4.63
2023-02-19T08:31:17.322Z,4.38
2023-02-19T08:33:43.753Z,4.40
2023-02-19T08:36:11.174Z,4.88
2023-02-19T08:38:38.496Z,3.55
2023-02-19T08:41:10.602Z,3.78
2023-02-19T08:43:37.413Z,4.63
2023-02-19T08:46:04.290Z,4.57
2023-02-19T08:48:30.952Z,4.40
2023-02-19T08:50:59.850Z,4.68
2023-02-19T08:53:26.686Z,4.30
2023-02-19T08:55:53.482Z,5.00
2023-02-19T09:00:46.455Z,4.57
2023-02-19T09:03:12.976Z,4.97
2023-02-19T09:05:40.425Z,4.75
2023-02-19T09:10:33.309Z,5.63
2023-02-19T09:13:00.774Z,4.63
2023-02-19T09:17:55.167Z,5.05
2023-02-19T09:20:21.601Z,5.35
2023-02-19T09:22:48.068Z,5.43
2023-02-19T09:25:14.742Z,5.15
2023-02-19T09:27:41.186Z,5.00
2023-02-19T09:30:08.061Z,5.07
2023-02-19T09:35:01.135Z,5.22
2023-02-19T09:37:28.206Z,5.80
2023-02-19T09:39:55.024Z,5.63
2023-02-19T09:44:55.810Z,4.57
2023-02-19T09:47:28.300Z,4.43
2023-02-19T09:49:59.686Z,4.43
2023-02-19T09:52:34.154Z,4.55
2023-02-19T09:55:25.926Z,4.75
2023-02-19T09:57:53.204Z,5.18
2023-02-19T10:00:23.866Z,4.63
2023-02-19T10:02:58.438Z,4.47
2023-02-19T10:05:26.311Z,4.68
2023-02-19T10:07:54.288Z,5.80
2023-02-19T10:10:34.881Z,5.38
2023-02-19T10:13:30.394Z,5.40
2023-02-19T10:15:58.820Z,4.40
2023-02-19T10:18:31.058Z,4.18
2023-02-19T10:20:58.266Z,4.20
2023-02-19T10:23:25.773Z,5.28
2023-02-19T10:25:57.412Z,4.55
2023-02-19T10:28:28.556Z,5.15
2023-02-19T10:30:58.090Z,4.80
2023-02-19T10:33:25.623Z,4.80
2023-02-19T10:36:07.191Z,5.05
2023-02-19T10:38:37.984Z,4.40
2023-02-19T10:41:07.983Z,4.43
2023-02-19T10:43:42.422Z,4.32
2023-02-19T10:46:23.071Z,4.00
2023-02-19T10:48:55.620Z,4.32
2023-02-19T10:51:35.120Z,3.83
2023-02-19T10:54:36.125Z,3.55
2023-02-19T10:57:15.144Z,3.70
2023-02-19T10:59:53.611Z,3.33
2023-02-19T11:02:21.612Z,3.70
2023-02-19T11:05:09.110Z,2.97
2023-02-19T11:07:36.786Z,3.38
2023-02-19T11:10:05.482Z,3.42
2023-02-19T11:12:34.622Z,3.20
2023-02-19T11:15:20.781Z,3.03
2023-02-19T11:17:58.930Z,3.03
2023-02-19T11:20:26.229Z,3.47
2023-02-19T11:22:58.347Z,2.88
2023-02-19T11:25:25.833Z,2.65
2023-02-19T11:27:56.549Z,2.78
2023-02-19T11:30:36.406Z,2.72
2023-02-19T11:33:33.159Z,2.13
2023-02-19T11:36:14.848Z,2.17
2023-02-19T11:38:42.477Z,2.13
2023-02-19T11:41:18.272Z,2.20
2023-02-19T11:43:57.236Z,2.05
2023-02-19T11:49:21.178Z,2.40
2023-02-19T11:52:03.384Z,2.20
2023-02-19T11:54:44.918Z,2.00
2023-02-19T11:57:52.369Z,1.85
2023-02-19T12:00:22.143Z,2.28
2023-02-19T12:03:13.546Z,2.38
2023-02-19T12:06:15.757Z,2.20
2023-02-19T12:08:57.718Z,2.92
2023-02-19T12:11:36.576Z,2.20
2023-02-19T12:16:47.713Z,2.35
2023-02-19T12:19:32.631Z,2.00
2023-02-19T12:25:14.301Z,2.08
2023-02-19T12:28:04.973Z,2.40
2023-02-19T12:30:40.196Z,2.10
2023-02-19T12:33:25.573Z,2.55
2023-02-19T12:35:55.236Z,2.45
2023-02-19T12:38:33.342Z,2.47
2023-02-19T12:41:33.822Z,2.78
2023-02-19T12:44:11.886Z,3.47
2023-02-19T12:46:49.305Z,3.97
2023-02-19T12:49:40.325Z,3.38
2023-02-19T12:54:44.108Z,4.07
2023-02-19T12:57:15.592Z,2.92
2023-02-19T12:59:46.238Z,2.58
2023-02-19T13:02:22.218Z,2.60
2023-02-19T13:05:23.736Z,2.45
2023-02-19T13:08:03.900Z,3.10
2023-02-19T13:10:44.923Z,1.90
2023-02-19T13:13:24.034Z,2.15
2023-02-19T13:15:56.665Z,2.00
2023-02-19T13:18:28.901Z,2.08
2023-02-19T13:20:56.346Z,2.10
2023-02-19T13:23:49.923Z,1.35
2023-02-19T13:26:31.700Z,1.63
2023-02-19T13:29:16.706Z,1.60
2023-02-19T13:32:14.028Z,1.50
2023-02-19T13:34:59.254Z,1.30
2023-02-19T13:37:26.675Z,1.42
2023-02-19T13:39:55.125Z,1.50
2023-02-19T13:42:32.982Z,1.00
2023-02-19T13:45:01.161Z,0.90
2023-02-19T13:47:59.702Z,1.20
2023-02-19T13:50:31.660Z,0.95
2023-02-19T13:52:59.894Z,1.50
2023-02-19T13:55:46.484Z,1.20
2023-02-19T13:58:34.788Z,1.23
2023-02-19T14:01:10.516Z,1.25
2023-02-19T14:03:37.120Z,1.70
2023-02-19T14:06:06.560Z,1.83
2023-02-19T14:09:00.228Z,2.00
2023-02-19T14:11:41.847Z,2.17
2023-02-19T14:14:43.730Z,2.00
2023-02-19T14:17:10.118Z,2.47
2023-02-19T14:19:42.832Z,2.00
2023-02-19T14:22:46.090Z,1.52
2023-02-19T14:25:34.868Z,2.97
2023-02-19T14:28:21.499Z,2.28
2023-02-19T14:30:54.727Z,1.98
2023-02-19T14:35:58.884Z,2.55
2023-02-19T14:38:27.596Z,2.47
2023-02-19T14:40:55.420Z,2.63
2023-02-19T14:43:25.100Z,2.55
2023-02-19T14:45:56.642Z,2.78
2023-02-19T14:48:35.202Z,2.60
2023-02-19T14:51:11.516Z,2.88
2023-02-19T14:53:43.037Z,2.72
2023-02-19T14:56:39.312Z,3.25
2023-02-19T14:59:11.801Z,3.20
2023-02-19T15:01:39.321Z,2.58
2023-02-19T15:04:06.551Z,2.83
2023-02-19T15:06:35.633Z,2.30
2023-02-19T15:09:05.868Z,2.30
2023-02-19T15:11:34.461Z,2.30
2023-02-19T15:14:03.835Z,2.40
2023-02-19T15:16:32.745Z,2.30
2023-02-19T15:19:00.063Z,1.73
2023-02-19T15:21:32.337Z,2.67
2023-02-19T15:24:04.976Z,2.70
2023-02-19T15:26:35.935Z,2.58
2023-02-19T15:29:08.960Z,2.25
2023-02-19T15:31:36.040Z,2.70
2023-02-19T15:34:02.691Z,2.75
2023-02-19T15:36:33.746Z,2.50
2023-02-19T15:39:02.505Z,2.60
2023-02-19T15:41:33.633Z,2.30
2023-02-19T15:44:15.241Z,2.13
2023-02-19T15:46:44.690Z,2.45
2023-02-19T15:49:21.954Z,2.45
2023-02-19T15:52:11.833Z,1.85
2023-02-19T15:54:52.488Z,2.78
2023-02-19T15:57:26.253Z,2.50
2023-02-19T16:00:05.526Z,2.33
2023-02-19T16:02:33.039Z,2.35
2023-02-19T16:05:02.098Z,2.85
2023-02-19T16:07:34.308Z,2.30
2023-02-19T16:10:19.494Z,2.85
2023-02-19T16:12:59.416Z,2.67
2023-02-19T16:15:27.998Z,2.47
2023-02-19T16:17:54.915Z,2.38
2023-02-19T16:20:26.119Z,2.67
2023-02-19T16:22:59.270Z,2.65
2023-02-19T16:25:40.333Z,3.08
2023-02-19T16:28:13.583Z,2.50
2023-02-19T16:30:41.394Z,3.22
2023-02-19T16:33:38.839Z,2.75
2023-02-19T16:36:21.732Z,2.50
2023-02-19T16:39:04.991Z,2.65
2023-02-19T16:41:31.629Z,3.40
2023-02-19T16:46:24.593Z,2.10
2023-02-19T16:48:51.429Z,2.58
2023-02-19T16:53:50.070Z,2.15
2023-02-19T16:56:18.799Z,2.33
2023-02-19T16:58:45.294Z,2.30
2023-02-19T17:01:12.165Z,2.42
2023-02-19T17:03:39.504Z,2.42
2023-02-19T17:06:06.009Z,2.45
2023-02-19T17:08:38.111Z,2.42
2023-02-19T17:11:10.694Z,2.90
2023-02-19T17:13:37.503Z,2.40
2023-02-19T17:16:04.595Z,2.75
2023-02-19T17:18:31.042Z,2.35
2023-02-19T17:21:10.896Z,4.10
2023-02-19T17:23:37.930Z,4.50
2023-02-19T17:26:04.527Z,3.38
2023-02-19T17:28:30.933Z,2.97
2023-02-19T17:30:57.372Z,3.00
2023-02-19T17:33:23.785Z,2.78
2023-02-19T17:35:50.228Z,2.75
2023-02-19T17:38:16.837Z,3.00
2023-02-19T17:40:44.981Z,3.05
2023-02-19T17:43:11.347Z,3.33
2023-02-19T17:45:38.303Z,2.67
2023-02-19T17:48:04.988Z,3.50
2023-02-19T17:50:32.353Z,3.13
2023-02-19T17:52:59.157Z,2.90
2023-02-19T17:55:25.921Z,3.58
2023-02-19T17:57:53.186Z,3.70
2023-02-19T18:00:26.569Z,3.05
2023-02-19T18:02:54.222Z,4.10
2023-02-19T18:05:21.070Z,3.70
2023-02-19T18:07:48.430Z,3.67
2023-02-19T18:10:19.557Z,3.70
2023-02-19T18:12:46.048Z,3.85
2023-02-19T18:15:30.601Z,4.60
2023-02-19T18:17:58.224Z,4.20
2023-02-19T18:20:28.974Z,4.43
2023-02-19T18:22:56.596Z,4.00
2023-02-19T18:25:24.164Z,4.15
2023-02-19T18:27:51.105Z,5.07
2023-02-19T18:30:19.320Z,4.57
2023-02-19T18:32:49.857Z,5.57
2023-02-19T18:35:17.831Z,6.03
2023-02-19T18:37:45.004Z,6.57
2023-02-19T18:40:12.167Z,6.18
2023-02-19T18:42:39.640Z,5.53
2023-02-19T18:47:32.948Z,5.05
2023-02-19T18:49:59.812Z,5.57
2023-02-19T18:52:27.258Z,7.70
2023-02-19T18:54:55.303Z,5.72
2023-02-19T18:57:23.497Z,6.05
2023-02-19T18:59:50.510Z,4.60
2023-02-19T19:02:17.265Z,6.80
2023-02-19T19:04:48.120Z,6.88
2023-02-19T19:07:14.674Z,5.78
2023-02-19T19:09:41.034Z,5.60
2023-02-19T19:12:07.508Z,4.60
2023-02-19T19:14:34.497Z,4.55
2023-02-19T19:17:00.990Z,5.57
2023-02-19T19:19:27.464Z,5.97
2023-02-19T19:21:54.733Z,5.68
2023-02-19T19:24:22.368Z,4.78
2023-02-19T19:26:50.604Z,6.22
2023-02-19T19:29:20.357Z,5.32
2023-02-19T19:31:46.960Z,5.15
2023-02-19T19:34:13.993Z,4.43
2023-02-19T19:39:07.165Z,4.50
2023-02-19T19:41:33.651Z,4.20
2023-02-19T19:44:06.300Z,3.80
2023-02-19T19:46:33.751Z,3.80
2023-02-19T19:49:00.541Z,4.10
2023-02-19T19:51:34.128Z,3.50
2023-02-19T19:54:01.856Z,4.28
2023-02-19T19:56:28.292Z,3.60
2023-02-19T19:58:54.708Z,3.83
2023-02-19T20:01:22.872Z,5.38
2023-02-19T20:03:51.038Z,4.43
2023-02-19T20:06:28.488Z,3.50
2023-02-19T20:08:55.080Z,3.88
2023-02-19T20:11:21.529Z,4.93
2023-02-19T20:13:48.154Z,3.40
2023-02-19T20:16:14.754Z,4.20
2023-02-19T20:18:41.980Z,3.70
2023-02-19T20:21:10.460Z,2.78
2023-02-19T20:23:40.334Z,3.22
2023-02-19T20:26:06.871Z,3.22
2023-02-19T20:28:34.104Z,3.83
2023-02-19T20:31:00.654Z,3.53
2023-02-19T20:33:27.153Z,3.42
2023-02-19T20:35:53.649Z,2.72
2023-02-19T20:38:20.097Z,2.90
2023-02-19T20:40:46.672Z,3.42
2023-02-19T20:43:13.053Z,3.40
2023-02-19T20:45:40.904Z,3.05
2023-02-19T20:48:07.409Z,3.28
2023-02-19T20:50:33.824Z,2.85
2023-02-19T20:53:00.269Z,3.40
2023-02-19T20:55:26.762Z,2.72
2023-02-19T20:57:53.128Z,2.83
2023-02-19T21:00:20.132Z,4.05
2023-02-19T21:02:46.880Z,3.83
2023-02-19T21:05:13.493Z,3.03
2023-02-19T21:07:39.951Z,2.97
2023-02-19T21:10:07.424Z,5.80
2023-02-19T21:12:33.817Z,4.20
2023-02-19T21:15:00.337Z,3.35
2023-02-19T21:17:26.747Z,4.00
2023-02-19T21:19:53.257Z,4.03
2023-02-19T21:22:19.743Z,3.33
2023-02-19T21:24:49.510Z,3.85
2023-02-19T21:27:16.103Z,4.07
2023-02-19T21:29:42.574Z,3.60
2023-02-19T21:32:09.145Z,3.20
2023-02-19T21:34:35.598Z,3.97
2023-02-19T21:37:02.162Z,3.90
2023-02-19T21:39:30.422Z,3.20
2023-02-19T21:41:58.608Z,3.63
2023-02-19T21:44:26.051Z,3.58
2023-02-19T21:46:52.479Z,3.58
2023-02-19T21:49:18.897Z,3.53
2023-02-19T21:51:47.810Z,4.53
2023-02-19T21:54:17.418Z,3.53
2023-02-19T21:56:44.246Z,3.47
2023-02-19T21:59:10.927Z,3.67
2023-02-19T22:01:42.071Z,3.65
2023-02-19T22:04:11.011Z,4.00
2023-02-19T22:06:39.442Z,4.32
2023-02-19T22:09:07.677Z,3.97
2023-02-19T22:11:34.188Z,4.20
2023-02-19T22:14:01.047Z,3.30
2023-02-19T22:18:57.536Z,3.90
2023-02-19T22:21:26.812Z,3.85
2023-02-19T22:23:54.277Z,4.25
2023-02-19T22:26:29.050Z,3.75
2023-02-19T22:28:55.522Z,3.58
2023-02-19T22:31:24.550Z,3.70
2023-02-19T22:33:51.568Z,3.50
2023-02-19T22:36:21.170Z,3.88
2023-02-19T22:38:48.167Z,4.50
2023-02-19T22:41:15.993Z,3.92
2023-02-19T22:43:42.386Z,4.60
2023-02-19T22:46:19.975Z,3.47
2023-02-19T22:48:46.768Z,4.05
2023-02-19T22:51:15.729Z,4.13
2023-02-19T22:53:46.836Z,3.42
2023-02-19T22:56:14.871Z,4.22
2023-02-19T22:58:42.000Z,4.10
2023-02-19T23:01:10.115Z,3.50
2023-02-19T23:03:54.884Z,4.97
2023-02-19T23:06:30.173Z,3.60
2023-02-19T23:08:58.375Z,3.67
2023-02-19T23:11:30.883Z,4.15
2023-02-19T23:13:58.261Z,4.10
2023-02-19T23:16:25.433Z,4.38
2023-02-19T23:21:18.768Z,3.22
2023-02-19T23:23:46.371Z,4.32
2023-02-19T23:26:14.265Z,4.20
2023-02-19T23:28:42.493Z,4.10
2023-02-19T23:31:10.105Z,3.92
2023-02-19T23:33:36.691Z,3.60
2023-02-19T23:36:03.368Z,3.50
2023-02-19T23:38:29.799Z,3.20
2023-02-19T23:40:56.198Z,4.00
2023-02-19T23:43:23.121Z,3.70
2023-02-19T23:45:49.666Z,3.50
2023-02-19T23:48:16.101Z,4.85
2023-02-19T23:50:42.907Z,4.85
2023-02-19T23:53:09.391Z,3.97
2023-02-19T23:55:35.785Z,3.97
2023-02-19T23:58:02.292Z,4.03
